createdAt,value
2019-05-03T00:02:28.829Z,66.87
2019-05-03T00:05:25.632Z,67.17
2019-05-03T00:08:05.175Z,66.59
2019-05-03T00:10:37.341Z,67.26
2019-05-03T00:13:08.180Z,66.90
2019-05-03T00:15:48.398Z,66.42
2019-05-03T00:18:19.177Z,66.40
2019-05-03T00:20:50.092Z,66.77
2019-05-03T00:23:22.682Z,66.42
2019-05-03T00:25:52.952Z,66.58
2019-05-03T00:28:26.432Z,66.49
2019-05-03T00:30:56.945Z,66.23
2019-05-03T00:33:28.343Z,66.21
2019-05-03T00:36:22.381Z,67.50
2019-05-03T00:38:56.227Z,67.78
2019-05-03T00:41:26.710Z,67.43
2019-05-03T00:43:57.253Z,68.37
2019-05-03T00:46:27.755Z,69.44
2019-05-03T00:48:58.313Z,68.94
2019-05-03T00:51:29.224Z,68.91
2019-05-03T00:54:02.000Z,68.43
2019-05-03T00:56:32.276Z,69.65
2019-05-03T00:59:02.937Z,69.77
2019-05-03T01:01:33.350Z,68.11
2019-05-03T01:04:04.499Z,68.17
2019-05-03T01:06:35.005Z,67.27
2019-05-03T01:09:11.838Z,67.72
2019-05-03T01:11:42.444Z,68.97
2019-05-03T01:14:13.206Z,69.43
2019-05-03T01:16:44.011Z,68.98
2019-05-03T01:19:14.741Z,69.14
2019-05-03T01:21:45.343Z,69.16
2019-05-03T01:24:18.258Z,69.34
2019-05-03T01:26:48.415Z,70.09
2019-05-03T01:29:19.486Z,69.48
2019-05-03T01:31:50.261Z,70.45
2019-05-03T01:34:21.899Z,70.07
2019-05-03T01:36:53.453Z,69.84
2019-05-03T01:39:23.881Z,69.99
2019-05-03T01:41:54.388Z,70.95
2019-05-03T01:44:24.894Z,70.29
2019-05-03T01:46:56.999Z,68.96
2019-05-03T01:49:49.119Z,67.60
2019-05-03T01:52:24.695Z,67.93
2019-05-03T01:54:55.164Z,65.60
2019-05-03T01:57:25.835Z,66.63
2019-05-03T01:59:56.220Z,66.48
2019-05-03T02:02:43.086Z,67.50
2019-05-03T02:05:38.164Z,66.86
2019-05-03T02:08:09.999Z,66.87
2019-05-03T02:10:40.456Z,68.21
2019-05-03T02:13:12.282Z,67.04
2019-05-03T02:15:43.191Z,67.88
2019-05-03T02:18:15.165Z,68.46
2019-05-03T02:20:45.686Z,66.57
2019-05-03T02:23:16.602Z,66.90
2019-05-03T02:25:55.958Z,67.43
2019-05-03T02:28:19.515Z,68.17
2019-05-03T02:30:49.994Z,67.57
2019-05-03T02:33:23.188Z,67.97
2019-05-03T02:35:53.459Z,66.82
2019-05-03T02:38:24.739Z,67.37
2019-05-03T02:40:55.453Z,68.14
2019-05-03T02:43:30.926Z,67.84
2019-05-03T02:46:20.264Z,67.83
2019-05-03T02:49:15.519Z,67.35
2019-05-03T02:51:46.188Z,66.98
2019-05-03T02:54:16.702Z,67.17
2019-05-03T02:56:47.416Z,67.22
2019-05-03T02:59:18.141Z,66.17
2019-05-03T03:01:48.843Z,67.02
2019-05-03T03:04:19.937Z,67.49
2019-05-03T03:06:51.952Z,67.64
2019-05-03T03:09:26.023Z,66.93
2019-05-03T03:11:59.986Z,66.71
2019-05-03T03:14:36.042Z,67.79
2019-05-03T03:17:08.005Z,68.56
2019-05-03T03:19:40.765Z,68.68
2019-05-03T03:22:12.078Z,69.39
2019-05-03T03:24:45.938Z,69.04
2019-05-03T03:27:20.474Z,70.10
2019-05-03T03:30:08.129Z,68.21
2019-05-03T03:32:41.030Z,69.58
2019-05-03T03:35:29.825Z,68.80
2019-05-03T03:37:57.544Z,68.57
2019-05-03T03:40:29.907Z,66.88
2019-05-03T03:43:05.079Z,66.78
2019-05-03T03:45:37.691Z,70.03
2019-05-03T03:48:09.351Z,69.16
2019-05-03T03:50:45.758Z,69.27
2019-05-03T03:53:18.450Z,69.85
2019-05-03T03:55:50.042Z,69.59
2019-05-03T03:58:22.702Z,69.68
2019-05-03T04:00:55.502Z,71.28
2019-05-03T04:03:26.235Z,69.84
2019-05-03T04:06:05.831Z,70.75
2019-05-03T04:08:37.134Z,71.43
2019-05-03T04:11:07.716Z,70.14
2019-05-03T04:13:41.204Z,68.97
2019-05-03T04:16:25.700Z,69.93
2019-05-03T04:19:21.868Z,70.48
2019-05-03T04:21:52.496Z,69.24
2019-05-03T04:24:25.681Z,68.92
2019-05-03T04:27:15.606Z,70.80
2019-05-03T04:29:38.702Z,71.07
2019-05-03T04:32:10.600Z,69.46
2019-05-03T04:34:41.748Z,68.30
2019-05-03T04:37:16.145Z,67.41
2019-05-03T04:39:47.077Z,67.00
2019-05-03T04:42:17.476Z,66.71
2019-05-03T04:44:47.915Z,67.63
2019-05-03T04:47:18.359Z,64.61
2019-05-03T04:49:48.812Z,60.58
2019-05-03T04:52:19.659Z,59.79
2019-05-03T04:54:56.415Z,56.92
2019-05-03T04:57:39.995Z,54.81
2019-05-03T04:59:59.778Z,58.63
2019-05-03T05:02:30.335Z,63.04
2019-05-03T05:05:00.773Z,63.95
2019-05-03T05:07:31.337Z,64.61
2019-05-03T05:10:04.622Z,65.19
2019-05-03T05:12:35.633Z,65.86
2019-05-03T05:15:06.972Z,65.02
2019-05-03T05:17:59.156Z,64.98
2019-05-03T05:20:55.456Z,65.75
2019-05-03T05:23:27.221Z,66.26
2019-05-03T05:26:14.882Z,66.61
2019-05-03T05:28:52.425Z,64.77
2019-05-03T05:31:22.993Z,66.74
2019-05-03T05:33:56.023Z,67.50
2019-05-03T05:36:26.322Z,68.51
2019-05-03T05:38:56.873Z,69.44
2019-05-03T05:41:27.455Z,69.99
2019-05-03T05:44:01.635Z,71.03
2019-05-03T05:46:38.984Z,71.68
2019-05-03T05:49:14.685Z,70.28
2019-05-03T05:51:45.239Z,70.42
2019-05-03T05:54:15.703Z,70.24
2019-05-03T05:57:05.043Z,71.91
2019-05-03T05:59:56.300Z,70.95
2019-05-03T06:02:27.078Z,70.81
2019-05-03T06:04:57.591Z,62.20
2019-05-03T06:07:46.921Z,62.38
2019-05-03T06:10:27.481Z,62.92
2019-05-03T06:13:04.924Z,64.20
2019-05-03T06:15:54.799Z,63.89
2019-05-03T06:18:31.172Z,62.17
2019-05-03T06:21:08.932Z,62.32
2019-05-03T06:23:45.149Z,64.01
2019-05-03T06:26:34.728Z,62.51
2019-05-03T06:29:05.420Z,60.04
2019-05-03T06:32:00.026Z,60.10
2019-05-03T06:34:30.485Z,61.21
2019-05-03T06:37:04.493Z,60.77
2019-05-03T06:39:35.316Z,61.67
2019-05-03T06:42:09.927Z,61.45
2019-05-03T06:44:38.284Z,60.85
2019-05-03T06:47:10.473Z,60.85
2019-05-03T06:49:44.923Z,61.24
2019-05-03T06:52:14.751Z,61.68
2019-05-03T06:54:45.308Z,61.67
2019-05-03T06:57:18.605Z,60.98
2019-05-03T07:00:10.554Z,61.30
2019-05-03T07:02:50.896Z,60.52
2019-05-03T07:05:44.460Z,61.68
2019-05-03T07:08:32.136Z,60.45
2019-05-03T07:11:08.348Z,60.61
2019-05-03T07:13:38.736Z,60.26
2019-05-03T07:16:09.505Z,60.91
2019-05-03T07:18:40.176Z,61.50
2019-05-03T07:21:10.630Z,61.51
2019-05-03T07:23:41.457Z,61.88
2019-05-03T07:26:11.942Z,61.41
2019-05-03T07:28:47.166Z,60.77
2019-05-03T07:31:15.105Z,60.90
2019-05-03T07:33:45.887Z,60.12
2019-05-03T07:36:16.353Z,60.87
2019-05-03T07:38:46.845Z,61.43
2019-05-03T07:41:17.326Z,62.00
2019-05-03T07:43:47.851Z,62.54
2019-05-03T07:46:18.350Z,62.95
2019-05-03T07:48:49.823Z,66.45
2019-05-03T07:51:20.113Z,66.33
2019-05-03T07:53:50.717Z,67.90
2019-05-03T07:56:25.343Z,66.93
2019-05-03T07:59:02.205Z,67.16
2019-05-03T08:01:37.348Z,64.33
2019-05-03T08:04:08.878Z,61.47
2019-05-03T08:06:39.340Z,61.65
2019-05-03T08:09:10.338Z,61.56
2019-05-03T08:11:40.861Z,57.19
2019-05-03T08:14:11.408Z,57.84
2019-05-03T08:16:41.807Z,57.26
2019-05-03T08:19:15.116Z,56.86
2019-05-03T08:21:45.610Z,60.05
2019-05-03T08:24:16.300Z,56.69
2019-05-03T08:26:47.128Z,57.72
2019-05-03T08:29:19.554Z,53.46
2019-05-03T08:32:02.620Z,54.53
2019-05-03T08:34:50.767Z,52.57
2019-05-03T08:37:40.062Z,50.58
2019-05-03T08:40:10.589Z,47.01
2019-05-03T08:42:44.466Z,54.50
2019-05-03T08:45:15.306Z,50.71
2019-05-03T08:47:46.998Z,50.42
2019-05-03T08:50:21.369Z,51.21
2019-05-03T08:52:49.847Z,49.11
2019-05-03T08:55:20.455Z,49.57
2019-05-03T08:57:50.915Z,49.74
2019-05-03T09:00:24.933Z,49.40
2019-05-03T09:02:55.534Z,49.29
2019-05-03T09:05:27.835Z,49.33
2019-05-03T09:07:58.177Z,49.56
2019-05-03T09:10:40.778Z,50.31
2019-05-03T09:13:18.941Z,51.06
2019-05-03T09:15:49.920Z,52.25
2019-05-03T09:18:20.397Z,52.64
2019-05-03T09:20:50.972Z,52.92
2019-05-03T09:23:23.405Z,51.35
2019-05-03T09:25:55.011Z,50.13
2019-05-03T09:28:28.926Z,50.74
2019-05-03T09:30:57.993Z,50.84
2019-05-03T09:33:28.456Z,50.40
2019-05-03T09:36:02.036Z,48.04
2019-05-03T09:38:32.467Z,47.73
2019-05-03T09:41:05.200Z,47.05
2019-05-03T09:43:35.855Z,48.00
2019-05-03T09:46:06.529Z,47.46
2019-05-03T09:48:37.141Z,47.61
2019-05-03T09:51:07.441Z,47.80
2019-05-03T09:53:46.041Z,47.93
2019-05-03T09:56:18.383Z,47.26
2019-05-03T09:58:49.088Z,48.80
2019-05-03T10:01:21.523Z,50.18
2019-05-03T10:03:52.182Z,50.20
2019-05-03T10:06:25.039Z,50.27
2019-05-03T10:08:57.348Z,48.47
2019-05-03T10:11:27.931Z,48.07
2019-05-03T10:13:58.637Z,47.27
2019-05-03T10:16:31.564Z,44.77
2019-05-03T10:19:08.852Z,43.40
2019-05-03T10:21:42.249Z,44.71
2019-05-03T10:24:12.796Z,42.67
2019-05-03T10:26:45.542Z,43.16
2019-05-03T10:29:16.735Z,44.96
2019-05-03T10:31:57.982Z,46.00
2019-05-03T10:34:28.340Z,46.51
2019-05-03T10:36:59.280Z,47.24
2019-05-03T10:39:30.188Z,48.68
2019-05-03T10:42:01.079Z,47.76
2019-05-03T10:44:31.674Z,47.60
2019-05-03T10:47:02.081Z,45.03
2019-05-03T10:49:32.693Z,45.08
2019-05-03T10:52:05.952Z,43.64
2019-05-03T10:54:36.369Z,45.42
2019-05-03T10:57:15.933Z,46.04
2019-05-03T10:59:46.722Z,47.14
2019-05-03T11:02:35.079Z,45.04
2019-05-03T11:05:05.957Z,44.03
2019-05-03T11:07:36.303Z,43.69
2019-05-03T11:10:07.678Z,44.18
2019-05-03T11:12:38.406Z,43.21
2019-05-03T11:15:09.670Z,41.95
2019-05-03T11:17:40.090Z,42.84
2019-05-03T11:20:10.652Z,42.70
2019-05-03T11:22:41.077Z,41.13
2019-05-03T11:25:11.999Z,41.73
2019-05-03T11:27:50.550Z,41.00
2019-05-03T11:30:21.046Z,41.85
2019-05-03T11:33:10.300Z,43.05
2019-05-03T11:36:12.182Z,42.80
2019-05-03T11:38:45.569Z,42.74
2019-05-03T11:41:29.194Z,43.29
2019-05-03T11:43:48.474Z,43.46
2019-05-03T11:46:18.926Z,42.67
2019-05-03T11:48:51.943Z,40.01
2019-05-03T11:51:24.487Z,40.40
2019-05-03T11:53:54.890Z,41.07
2019-05-03T11:56:25.921Z,38.50
2019-05-03T11:58:56.958Z,39.64
2019-05-03T12:01:37.880Z,41.08
2019-05-03T12:04:08.347Z,39.52
2019-05-03T12:06:38.753Z,38.75
2019-05-03T12:09:09.348Z,39.12
2019-05-03T12:11:40.935Z,40.74
2019-05-03T12:14:12.067Z,41.64
2019-05-03T12:17:23.902Z,40.18
2019-05-03T12:19:28.170Z,40.67
2019-05-03T12:21:56.035Z,40.91
2019-05-03T12:24:27.225Z,39.82
2019-05-03T12:26:58.543Z,40.45
2019-05-03T12:29:28.952Z,39.13
2019-05-03T12:31:59.503Z,39.36
2019-05-03T12:34:36.034Z,41.03
2019-05-03T12:37:06.524Z,41.86
2019-05-03T12:39:37.173Z,39.12
2019-05-03T12:42:08.743Z,37.60
2019-05-03T12:44:39.301Z,37.13
2019-05-03T12:47:10.163Z,37.25
2019-05-03T12:49:41.121Z,36.39
2019-05-03T12:52:12.130Z,35.79
2019-05-03T12:54:42.847Z,36.24
2019-05-03T12:57:15.389Z,37.72
2019-05-03T13:00:10.171Z,37.94
2019-05-03T13:02:44.816Z,39.04
2019-05-03T13:05:15.544Z,40.13
2019-05-03T13:07:50.667Z,39.39
2019-05-03T13:10:23.332Z,38.04
2019-05-03T13:13:00.501Z,37.80
2019-05-03T13:15:30.987Z,34.98
2019-05-03T13:18:01.478Z,34.26
2019-05-03T13:20:35.875Z,37.13
2019-05-03T13:23:06.219Z,38.43
2019-05-03T13:25:36.823Z,39.01
2019-05-03T13:28:07.730Z,38.78
2019-05-03T13:30:38.227Z,39.79
2019-05-03T13:33:10.941Z,38.76
2019-05-03T13:35:41.375Z,36.99
2019-05-03T13:38:12.525Z,37.62
2019-05-03T13:40:45.163Z,34.70
2019-05-03T13:43:15.225Z,35.00
2019-05-03T13:45:46.259Z,34.87
2019-05-03T13:48:20.987Z,35.82
2019-05-03T13:50:49.620Z,36.59
2019-05-03T13:53:20.045Z,36.67
2019-05-03T13:55:50.665Z,38.10
2019-05-03T13:58:21.240Z,37.33
2019-05-03T14:00:51.693Z,38.27
2019-05-03T14:03:22.681Z,37.95
2019-05-03T14:05:55.183Z,37.27
2019-05-03T14:08:25.902Z,38.43
2019-05-03T14:10:56.401Z,38.44
2019-05-03T14:13:26.805Z,38.59
2019-05-03T14:15:57.469Z,39.00
2019-05-03T14:18:27.946Z,39.02
2019-05-03T14:21:17.199Z,37.55
2019-05-03T14:24:05.275Z,38.03
2019-05-03T14:26:35.957Z,37.12
2019-05-03T14:29:06.801Z,36.27
2019-05-03T14:31:37.748Z,34.37
2019-05-03T14:34:08.192Z,34.54
2019-05-03T14:36:38.687Z,35.54
2019-05-03T14:39:10.821Z,35.74
2019-05-03T14:41:41.284Z,35.60
2019-05-03T14:44:14.511Z,32.98
2019-05-03T14:46:45.878Z,33.32
2019-05-03T14:49:16.630Z,33.87
2019-05-03T14:51:47.019Z,34.67
2019-05-03T14:54:21.211Z,35.73
2019-05-03T14:57:01.222Z,35.06
2019-05-03T14:59:50.461Z,35.56
2019-05-03T15:02:43.694Z,34.45
2019-05-03T15:05:10.927Z,34.09
2019-05-03T15:07:41.622Z,33.65
2019-05-03T15:10:12.481Z,34.34
2019-05-03T15:12:45.016Z,34.56
2019-05-03T15:15:15.358Z,33.85
2019-05-03T15:17:48.613Z,33.11
2019-05-03T15:20:19.503Z,34.63
2019-05-03T15:22:50.113Z,34.78
2019-05-03T15:25:21.223Z,35.31
2019-05-03T15:27:51.640Z,35.42
2019-05-03T15:30:22.579Z,34.41
2019-05-03T15:32:57.647Z,34.47
2019-05-03T15:35:25.990Z,34.12
2019-05-03T15:37:56.720Z,33.14
2019-05-03T15:40:27.063Z,33.91
2019-05-03T15:43:22.424Z,33.69
2019-05-03T15:46:10.980Z,33.55
2019-05-03T15:48:47.216Z,33.91
2019-05-03T15:51:17.767Z,36.77
2019-05-03T15:53:48.148Z,35.68
2019-05-03T15:56:18.792Z,35.56
2019-05-03T15:58:49.694Z,35.24
2019-05-03T16:01:20.224Z,35.27
2019-05-03T16:03:51.038Z,36.11
2019-05-03T16:06:40.858Z,35.60
2019-05-03T16:09:12.207Z,35.08
2019-05-03T16:11:44.956Z,34.87
2019-05-03T16:14:15.809Z,36.85
2019-05-03T16:16:46.274Z,36.65
2019-05-03T16:19:16.729Z,36.52
2019-05-03T16:21:47.717Z,37.44
2019-05-03T16:24:18.432Z,36.28
2019-05-03T16:27:14.317Z,36.74
2019-05-03T16:29:46.238Z,37.14
2019-05-03T16:32:16.995Z,36.78
2019-05-03T16:34:47.475Z,37.21
2019-05-03T16:37:17.949Z,37.81
2019-05-03T16:39:48.358Z,36.71
2019-05-03T16:42:19.142Z,36.94
2019-05-03T16:44:49.657Z,37.67
2019-05-03T16:47:20.528Z,37.83
2019-05-03T16:49:51.726Z,37.90
2019-05-03T16:52:22.202Z,37.40
2019-05-03T16:54:54.705Z,36.82
2019-05-03T16:57:24.992Z,37.45
2019-05-03T16:59:55.553Z,37.17
2019-05-03T17:02:26.012Z,39.02
2019-05-03T17:05:04.762Z,38.98
2019-05-03T17:07:40.011Z,38.71
2019-05-03T17:10:25.542Z,37.30
2019-05-03T17:12:56.993Z,37.57
2019-05-03T17:15:29.609Z,37.59
2019-05-03T17:18:00.131Z,38.44
2019-05-03T17:20:30.569Z,37.97
2019-05-03T17:23:01.176Z,38.24
2019-05-03T17:25:32.773Z,38.82
2019-05-03T17:28:05.035Z,39.17
2019-05-03T17:30:37.423Z,39.96
2019-05-03T17:33:07.992Z,39.17
2019-05-03T17:35:38.676Z,39.54
2019-05-03T17:38:09.282Z,40.11
2019-05-03T17:40:57.255Z,41.08
2019-05-03T17:43:31.484Z,40.93
2019-05-03T17:46:01.836Z,41.17
2019-05-03T17:48:32.291Z,41.19
2019-05-03T17:51:04.435Z,41.75
2019-05-03T17:53:54.868Z,42.10
2019-05-03T17:56:44.405Z,42.76
2019-05-03T17:59:30.453Z,43.50
2019-05-03T18:02:19.011Z,43.73
2019-05-03T18:05:17.156Z,44.41
2019-05-03T18:08:25.108Z,42.08
2019-05-03T18:11:09.216Z,42.46
2019-05-03T18:13:38.793Z,43.25
2019-05-03T18:16:09.662Z,42.73
2019-05-03T18:18:40.139Z,42.62
2019-05-03T18:21:10.731Z,42.82
2019-05-03T18:23:42.620Z,43.51
2019-05-03T18:26:14.429Z,43.84
2019-05-03T18:28:45.112Z,44.53
2019-05-03T18:31:15.638Z,45.20
2019-05-03T18:33:46.119Z,45.30
2019-05-03T18:36:17.359Z,45.63
2019-05-03T18:38:48.113Z,45.49
2019-05-03T18:41:18.674Z,45.57
2019-05-03T18:44:08.139Z,45.18
2019-05-03T18:46:44.572Z,44.57
2019-05-03T18:49:15.069Z,43.38
2019-05-03T18:51:45.553Z,43.34
2019-05-03T18:54:16.472Z,43.89
2019-05-03T18:56:47.059Z,44.61
2019-05-03T18:59:17.654Z,44.96
2019-05-03T19:01:48.254Z,45.26
2019-05-03T19:04:32.339Z,45.17
2019-05-03T19:07:04.352Z,46.45
2019-05-03T19:09:57.021Z,46.14
2019-05-03T19:12:40.691Z,46.03
2019-05-03T19:15:12.037Z,47.18
2019-05-03T19:18:07.192Z,47.35
2019-05-03T19:20:37.812Z,47.87
2019-05-03T19:23:08.241Z,48.01
2019-05-03T19:25:46.920Z,47.21
2019-05-03T19:28:11.223Z,46.07
2019-05-03T19:30:44.392Z,47.47
2019-05-03T19:33:15.685Z,47.66
2019-05-03T19:35:47.192Z,46.94
2019-05-03T19:38:19.549Z,47.13
2019-05-03T19:40:50.313Z,47.17
2019-05-03T19:43:21.003Z,47.58
2019-05-03T19:45:53.060Z,48.28
2019-05-03T19:52:15.542Z,48.07
2019-05-03T19:54:46.451Z,49.56
2019-05-03T19:57:18.968Z,50.15
2019-05-03T19:59:56.394Z,50.86
2019-05-03T20:02:45.460Z,51.04
2019-05-03T20:05:42.018Z,51.43
2019-05-03T20:08:35.240Z,50.52
2019-05-03T20:11:16.135Z,49.69
2019-05-03T20:13:47.259Z,49.94
2019-05-03T20:16:17.791Z,49.97
2019-05-03T20:18:49.110Z,49.39
2019-05-03T20:21:25.130Z,50.41
2019-05-03T20:23:55.667Z,51.17
2019-05-03T20:26:26.362Z,51.32
2019-05-03T20:28:57.279Z,52.20
2019-05-03T20:31:27.776Z,52.59
2019-05-03T20:33:58.800Z,51.33
2019-05-03T20:36:29.530Z,51.54
2019-05-03T20:39:00.167Z,52.08
2019-05-03T20:41:30.880Z,52.50
2019-05-03T20:44:08.126Z,52.94
2019-05-03T20:46:48.444Z,52.26
2019-05-03T20:49:19.152Z,52.09
2019-05-03T20:51:51.358Z,52.70
2019-05-03T20:54:22.038Z,52.82
2019-05-03T20:56:54.564Z,53.99
2019-05-03T20:59:25.355Z,55.34
2019-05-03T21:01:56.331Z,54.36
2019-05-03T21:04:27.465Z,54.41
2019-05-03T21:07:04.926Z,53.73
2019-05-03T21:09:36.048Z,55.17
2019-05-03T21:12:06.531Z,55.96
2019-05-03T21:14:37.107Z,55.94
2019-05-03T21:17:18.241Z,56.19
2019-05-03T21:20:14.801Z,56.57
2019-05-03T21:22:48.334Z,56.86
2019-05-03T21:25:25.084Z,57.33
2019-05-03T21:27:55.621Z,57.39
2019-05-03T21:30:26.425Z,56.09
2019-05-03T21:32:57.086Z,56.52
2019-05-03T21:35:40.971Z,56.19
2019-05-03T21:38:00.292Z,56.64
2019-05-03T21:40:30.827Z,57.33
2019-05-03T21:43:01.344Z,57.88
2019-05-03T21:45:46.588Z,58.57
2019-05-03T21:48:21.430Z,58.86
2019-05-03T21:50:52.190Z,59.90
2019-05-03T21:53:22.692Z,58.94
2019-05-03T21:55:53.278Z,57.98
2019-05-03T21:58:24.958Z,58.07
2019-05-03T22:01:01.455Z,57.72
2019-05-03T22:03:31.858Z,58.23
2019-05-03T22:06:02.339Z,57.91
2019-05-03T22:08:34.946Z,57.91
2019-05-03T22:11:05.427Z,58.03
2019-05-03T22:13:37.042Z,58.75
2019-05-03T22:16:15.510Z,59.29
2019-05-03T22:18:46.343Z,59.83
2019-05-03T22:21:36.871Z,60.16
2019-05-03T22:24:16.877Z,60.24
2019-05-03T22:27:12.279Z,60.26
2019-05-03T22:29:44.723Z,60.36
2019-05-03T22:32:15.822Z,60.64
2019-05-03T22:34:46.796Z,60.58
2019-05-03T22:37:17.455Z,60.29
2019-05-03T22:39:48.319Z,60.62
2019-05-03T22:42:18.823Z,60.81
2019-05-03T22:44:49.586Z,60.81
2019-05-03T22:47:20.295Z,61.10
2019-05-03T22:49:50.767Z,61.20
2019-05-03T22:52:21.221Z,61.95
2019-05-03T22:54:51.597Z,61.87
2019-05-03T22:57:22.787Z,61.84
2019-05-03T22:59:54.787Z,61.72
2019-05-03T23:02:25.126Z,61.98
2019-05-03T23:04:55.710Z,62.14
2019-05-03T23:07:26.398Z,62.07
2019-05-03T23:09:56.853Z,62.11
2019-05-03T23:12:27.323Z,61.75
2019-05-03T23:14:57.985Z,62.22
2019-05-03T23:17:28.502Z,62.39
2019-05-03T23:20:05.067Z,62.10
2019-05-03T23:22:35.765Z,61.63
2019-05-03T23:25:06.457Z,61.85
2019-05-03T23:27:37.192Z,62.19
2019-05-03T23:30:07.968Z,62.04
2019-05-03T23:32:39.027Z,62.31
2019-05-03T23:35:09.863Z,62.42
2019-05-03T23:37:40.705Z,62.70
2019-05-03T23:40:11.414Z,62.91
2019-05-03T23:42:41.802Z,63.10
2019-05-03T23:45:14.794Z,63.19
2019-05-03T23:47:47.780Z,62.78
2019-05-03T23:50:20.803Z,63.27
2019-05-03T23:52:51.365Z,62.85
2019-05-03T23:55:44.922Z,63.21
2019-05-03T23:58:15.480Z,63.80
